sensor_id;sensor_type;location;lat;lon;timestamp;P1;durP1;ratioP1;P2;durP2;ratioP2
20287;SDS011;10303;51.960;8.372;2023-11-19T00:00:53;0.30;;;0.30;;
20287;SDS011;10303;51.960;8.372;2023-11-19T00:03:18;0.33;;;0.33;;
20287;SDS011;10303;51.960;8.372;2023-11-19T00:05:45;0.30;;;0.30;;
20287;SDS011;10303;51.960;8.372;2023-11-19T00:08:11;0.23;;;0.23;;
20287;SDS011;10303;51.960;8.372;2023-11-19T00:10:37;0.93;;;0.60;;
20287;SDS011;10303;51.960;8.372;2023-11-19T00:13:03;0.40;;;0.40;;
20287;SDS011;10303;51.960;8.372;2023-11-19T00:15:30;1.20;;;0.30;;
20287;SDS011;10303;51.960;8.372;2023-11-19T00:17:56;0.30;;;0.30;;
20287;SDS011;10303;51.960;8.372;2023-11-19T00:20:22;1.20;;;0.50;;
20287;SDS011;10303;51.960;8.372;2023-11-19T00:22:48;0.30;;;0.30;;
20287;SDS011;10303;51.960;8.372;2023-11-19T00:25:18;0.30;;;0.20;;
20287;SDS011;10303;51.960;8.372;2023-11-19T00:27:44;0.43;;;0.33;;
20287;SDS011;10303;51.960;8.372;2023-11-19T00:30:11;0.30;;;0.30;;
20287;SDS011;10303;51.960;8.372;2023-11-19T00:32:38;0.50;;;0.50;;
20287;SDS011;10303;51.960;8.372;2023-11-19T00:35:05;0.50;;;0.50;;
20287;SDS011;10303;51.960;8.372;2023-11-19T00:37:32;0.53;;;0.53;;
20287;SDS011;10303;51.960;8.372;2023-11-19T00:39:59;0.30;;;0.30;;
20287;SDS011;10303;51.960;8.372;2023-11-19T00:42:24;0.37;;;0.37;;
20287;SDS011;10303;51.960;8.372;2023-11-19T00:44:52;0.30;;;0.30;;
20287;SDS011;10303;51.960;8.372;2023-11-19T00:47:18;0.40;;;0.40;;
20287;SDS011;10303;51.960;8.372;2023-11-19T00:49:48;0.40;;;0.40;;
20287;SDS011;10303;51.960;8.372;2023-11-19T00:52:14;0.40;;;0.40;;
20287;SDS011;10303;51.960;8.372;2023-11-19T00:54:41;0.30;;;0.30;;
20287;SDS011;10303;51.960;8.372;2023-11-19T00:57:07;0.50;;;0.50;;
20287;SDS011;10303;51.960;8.372;2023-11-19T00:59:33;0.63;;;0.53;;
20287;SDS011;10303;51.960;8.372;2023-11-19T01:01:59;1.90;;;0.60;;
20287;SDS011;10303;51.960;8.372;2023-11-19T01:04:33;1.03;;;0.50;;
20287;SDS011;10303;51.960;8.372;2023-11-19T01:07:02;0.50;;;0.50;;
20287;SDS011;10303;51.960;8.372;2023-11-19T01:09:31;0.47;;;0.47;;
20287;SDS011;10303;51.960;8.372;2023-11-19T01:12:00;0.50;;;0.50;;
20287;SDS011;10303;51.960;8.372;2023-11-19T01:14:27;0.57;;;0.57;;
20287;SDS011;10303;51.960;8.372;2023-11-19T01:16:53;0.43;;;0.40;;
20287;SDS011;10303;51.960;8.372;2023-11-19T01:19:20;0.50;;;0.50;;
20287;SDS011;10303;51.960;8.372;2023-11-19T01:21:48;0.83;;;0.50;;
20287;SDS011;10303;51.960;8.372;2023-11-19T01:24:14;0.57;;;0.57;;
20287;SDS011;10303;51.960;8.372;2023-11-19T01:26:41;1.10;;;0.50;;
20287;SDS011;10303;51.960;8.372;2023-11-19T01:29:11;0.70;;;0.70;;
20287;SDS011;10303;51.960;8.372;2023-11-19T01:31:41;0.60;;;0.60;;
20287;SDS011;10303;51.960;8.372;2023-11-19T01:34:16;0.60;;;0.60;;
20287;SDS011;10303;51.960;8.372;2023-11-19T01:36:42;0.70;;;0.70;;
20287;SDS011;10303;51.960;8.372;2023-11-19T01:39:08;1.03;;;0.80;;
20287;SDS011;10303;51.960;8.372;2023-11-19T01:41:34;0.60;;;0.60;;
20287;SDS011;10303;51.960;8.372;2023-11-19T01:44:01;0.70;;;0.70;;
20287;SDS011;10303;51.960;8.372;2023-11-19T01:46:27;0.63;;;0.63;;
20287;SDS011;10303;51.960;8.372;2023-11-19T01:48:55;0.97;;;0.87;;
20287;SDS011;10303;51.960;8.372;2023-11-19T01:51:21;1.03;;;0.93;;
20287;SDS011;10303;51.960;8.372;2023-11-19T01:53:48;0.63;;;0.63;;
20287;SDS011;10303;51.960;8.372;2023-11-19T01:56:15;1.23;;;0.80;;
20287;SDS011;10303;51.960;8.372;2023-11-19T01:58:43;0.80;;;0.80;;
20287;SDS011;10303;51.960;8.372;2023-11-19T02:01:11;1.87;;;0.90;;
20287;SDS011;10303;51.960;8.372;2023-11-19T02:03:38;0.60;;;0.60;;
20287;SDS011;10303;51.960;8.372;2023-11-19T02:06:04;0.90;;;0.90;;
20287;SDS011;10303;51.960;8.372;2023-11-19T02:08:32;0.60;;;0.60;;
20287;SDS011;10303;51.960;8.372;2023-11-19T02:10:58;2.37;;;1.17;;
20287;SDS011;10303;51.960;8.372;2023-11-19T02:13:25;0.87;;;0.87;;
20287;SDS011;10303;51.960;8.372;2023-11-19T02:15:54;0.70;;;0.70;;
20287;SDS011;10303;51.960;8.372;2023-11-19T02:18:24;0.73;;;0.73;;
20287;SDS011;10303;51.960;8.372;2023-11-19T02:20:56;0.73;;;0.73;;
20287;SDS011;10303;51.960;8.372;2023-11-19T02:23:23;1.90;;;0.70;;
20287;SDS011;10303;51.960;8.372;2023-11-19T02:28:24;1.00;;;0.97;;
20287;SDS011;10303;51.960;8.372;2023-11-19T02:30:50;0.80;;;0.80;;
20287;SDS011;10303;51.960;8.372;2023-11-19T02:33:15;0.93;;;0.93;;
20287;SDS011;10303;51.960;8.372;2023-11-19T02:35:41;1.03;;;1.00;;
20287;SDS011;10303;51.960;8.372;2023-11-19T02:38:07;1.47;;;1.37;;
20287;SDS011;10303;51.960;8.372;2023-11-19T02:40:34;1.70;;;1.60;;
20287;SDS011;10303;51.960;8.372;2023-11-19T02:43:00;1.33;;;1.23;;
20287;SDS011;10303;51.960;8.372;2023-11-19T02:45:26;0.93;;;0.93;;
20287;SDS011;10303;51.960;8.372;2023-11-19T02:47:54;0.90;;;0.90;;
20287;SDS011;10303;51.960;8.372;2023-11-19T02:50:21;2.43;;;1.33;;
20287;SDS011;10303;51.960;8.372;2023-11-19T02:52:51;1.80;;;1.70;;
20287;SDS011;10303;51.960;8.372;2023-11-19T02:55:19;1.70;;;1.60;;
20287;SDS011;10303;51.960;8.372;2023-11-19T02:57:45;2.47;;;2.37;;
20287;SDS011;10303;51.960;8.372;2023-11-19T03:02:48;2.73;;;2.53;;
20287;SDS011;10303;51.960;8.372;2023-11-19T03:05:24;2.50;;;2.30;;
20287;SDS011;10303;51.960;8.372;2023-11-19T03:07:54;3.27;;;2.97;;
20287;SDS011;10303;51.960;8.372;2023-11-19T03:10:20;3.03;;;2.83;;
20287;SDS011;10303;51.960;8.372;2023-11-19T03:12:46;3.33;;;3.10;;
20287;SDS011;10303;51.960;8.372;2023-11-19T03:15:12;4.57;;;3.20;;
20287;SDS011;10303;51.960;8.372;2023-11-19T03:17:38;4.00;;;3.70;;
20287;SDS011;10303;51.960;8.372;2023-11-19T03:20:07;3.90;;;3.50;;
20287;SDS011;10303;51.960;8.372;2023-11-19T03:22:39;2.90;;;2.70;;
20287;SDS011;10303;51.960;8.372;2023-11-19T03:25:07;3.93;;;2.93;;
20287;SDS011;10303;51.960;8.372;2023-11-19T03:27:34;3.00;;;2.70;;
20287;SDS011;10303;51.960;8.372;2023-11-19T03:30:11;5.90;;;3.93;;
20287;SDS011;10303;51.960;8.372;2023-11-19T03:32:37;6.13;;;3.73;;
20287;SDS011;10303;51.960;8.372;2023-11-19T03:35:04;4.37;;;3.80;;
20287;SDS011;10303;51.960;8.372;2023-11-19T03:37:33;2.83;;;2.63;;
20287;SDS011;10303;51.960;8.372;2023-11-19T03:39:59;2.70;;;2.50;;
20287;SDS011;10303;51.960;8.372;2023-11-19T03:42:27;4.63;;;3.37;;
20287;SDS011;10303;51.960;8.372;2023-11-19T03:44:53;3.63;;;3.30;;
20287;SDS011;10303;51.960;8.372;2023-11-19T03:47:20;4.23;;;2.97;;
20287;SDS011;10303;51.960;8.372;2023-11-19T03:49:51;3.63;;;2.40;;
20287;SDS011;10303;51.960;8.372;2023-11-19T03:52:17;3.53;;;3.17;;
20287;SDS011;10303;51.960;8.372;2023-11-19T03:54:44;3.47;;;3.20;;
20287;SDS011;10303;51.960;8.372;2023-11-19T03:57:14;4.73;;;3.10;;
20287;SDS011;10303;51.960;8.372;2023-11-19T03:59:41;6.90;;;3.00;;
20287;SDS011;10303;51.960;8.372;2023-11-19T04:02:07;2.97;;;2.50;;
20287;SDS011;10303;51.960;8.372;2023-11-19T04:04:33;1.93;;;1.83;;
20287;SDS011;10303;51.960;8.372;2023-11-19T04:07:00;2.37;;;2.10;;
20287;SDS011;10303;51.960;8.372;2023-11-19T04:09:28;4.67;;;2.63;;
20287;SDS011;10303;51.960;8.372;2023-11-19T04:11:55;2.20;;;2.00;;
20287;SDS011;10303;51.960;8.372;2023-11-19T04:14:26;3.73;;;2.90;;
20287;SDS011;10303;51.960;8.372;2023-11-19T04:16:52;3.60;;;1.90;;
20287;SDS011;10303;51.960;8.372;2023-11-19T04:19:18;2.03;;;1.87;;
20287;SDS011;10303;51.960;8.372;2023-11-19T04:21:45;3.80;;;2.53;;
20287;SDS011;10303;51.960;8.372;2023-11-19T04:24:11;3.33;;;1.80;;
20287;SDS011;10303;51.960;8.372;2023-11-19T04:26:42;3.70;;;2.27;;
20287;SDS011;10303;51.960;8.372;2023-11-19T04:29:13;2.53;;;2.30;;
20287;SDS011;10303;51.960;8.372;2023-11-19T04:31:44;2.50;;;1.77;;
20287;SDS011;10303;51.960;8.372;2023-11-19T04:34:11;7.20;;;2.50;;
20287;SDS011;10303;51.960;8.372;2023-11-19T04:36:38;2.27;;;1.97;;
20287;SDS011;10303;51.960;8.372;2023-11-19T04:39:04;5.90;;;2.83;;
20287;SDS011;10303;51.960;8.372;2023-11-19T04:41:49;6.37;;;2.43;;
20287;SDS011;10303;51.960;8.372;2023-11-19T04:44:19;9.67;;;2.33;;
20287;SDS011;10303;51.960;8.372;2023-11-19T04:46:46;8.20;;;2.30;;
20287;SDS011;10303;51.960;8.372;2023-11-19T04:49:13;5.27;;;2.13;;
20287;SDS011;10303;51.960;8.372;2023-11-19T04:51:44;3.37;;;1.47;;
20287;SDS011;10303;51.960;8.372;2023-11-19T04:54:13;5.53;;;2.10;;
20287;SDS011;10303;51.960;8.372;2023-11-19T04:56:39;6.47;;;2.40;;
20287;SDS011;10303;51.960;8.372;2023-11-19T04:59:06;4.17;;;1.90;;
20287;SDS011;10303;51.960;8.372;2023-11-19T05:01:32;6.47;;;2.07;;
20287;SDS011;10303;51.960;8.372;2023-11-19T05:03:58;5.43;;;2.10;;
20287;SDS011;10303;51.960;8.372;2023-11-19T05:06:28;3.87;;;2.00;;
20287;SDS011;10303;51.960;8.372;2023-11-19T05:08:58;8.77;;;2.20;;
20287;SDS011;10303;51.960;8.372;2023-11-19T05:11:26;4.60;;;2.00;;
20287;SDS011;10303;51.960;8.372;2023-11-19T05:13:53;3.70;;;1.43;;
20287;SDS011;10303;51.960;8.372;2023-11-19T05:16:20;6.67;;;1.70;;
20287;SDS011;10303;51.960;8.372;2023-11-19T05:18:46;4.63;;;2.20;;
20287;SDS011;10303;51.960;8.372;2023-11-19T05:21:12;6.00;;;2.27;;
20287;SDS011;10303;51.960;8.372;2023-11-19T05:23:38;5.83;;;2.03;;
20287;SDS011;10303;51.960;8.372;2023-11-19T05:26:04;3.20;;;1.67;;
20287;SDS011;10303;51.960;8.372;2023-11-19T05:28:30;7.87;;;2.60;;
20287;SDS011;10303;51.960;8.372;2023-11-19T05:30:57;4.63;;;2.13;;
20287;SDS011;10303;51.960;8.372;2023-11-19T05:33:22;4.33;;;2.17;;
20287;SDS011;10303;51.960;8.372;2023-11-19T05:35:48;7.37;;;1.57;;
20287;SDS011;10303;51.960;8.372;2023-11-19T05:38:14;6.43;;;2.13;;
20287;SDS011;10303;51.960;8.372;2023-11-19T05:40:41;5.23;;;1.50;;
20287;SDS011;10303;51.960;8.372;2023-11-19T05:43:07;10.07;;;2.43;;
20287;SDS011;10303;51.960;8.372;2023-11-19T05:45:33;6.77;;;1.93;;
20287;SDS011;10303;51.960;8.372;2023-11-19T05:47:59;8.70;;;2.00;;
20287;SDS011;10303;51.960;8.372;2023-11-19T05:50:25;5.90;;;2.27;;
20287;SDS011;10303;51.960;8.372;2023-11-19T05:52:50;6.60;;;1.90;;
20287;SDS011;10303;51.960;8.372;2023-11-19T05:55:18;2.63;;;1.20;;
20287;SDS011;10303;51.960;8.372;2023-11-19T05:57:44;8.33;;;2.30;;
20287;SDS011;10303;51.960;8.372;2023-11-19T06:00:10;8.70;;;2.90;;
20287;SDS011;10303;51.960;8.372;2023-11-19T06:02:38;10.00;;;2.90;;
20287;SDS011;10303;51.960;8.372;2023-11-19T06:05:04;7.17;;;2.27;;
20287;SDS011;10303;51.960;8.372;2023-11-19T06:07:35;5.77;;;2.27;;
20287;SDS011;10303;51.960;8.372;2023-11-19T06:10:02;5.60;;;2.17;;
20287;SDS011;10303;51.960;8.372;2023-11-19T06:12:30;12.43;;;2.37;;
20287;SDS011;10303;51.960;8.372;2023-11-19T06:14:57;5.17;;;2.10;;
20287;SDS011;10303;51.960;8.372;2023-11-19T06:17:23;9.23;;;2.50;;
20287;SDS011;10303;51.960;8.372;2023-11-19T06:19:48;7.73;;;2.43;;
20287;SDS011;10303;51.960;8.372;2023-11-19T06:22:14;5.00;;;2.07;;
20287;SDS011;10303;51.960;8.372;2023-11-19T06:24:41;7.20;;;2.23;;
20287;SDS011;10303;51.960;8.372;2023-11-19T06:27:07;5.33;;;2.07;;
20287;SDS011;10303;51.960;8.372;2023-11-19T06:29:33;4.90;;;1.77;;
20287;SDS011;10303;51.960;8.372;2023-11-19T06:31:59;3.73;;;2.63;;
20287;SDS011;10303;51.960;8.372;2023-11-19T06:34:25;12.90;;;3.40;;
20287;SDS011;10303;51.960;8.372;2023-11-19T06:36:51;10.77;;;2.97;;
20287;SDS011;10303;51.960;8.372;2023-11-19T06:39:18;13.30;;;2.47;;
20287;SDS011;10303;51.960;8.372;2023-11-19T06:41:45;9.43;;;2.70;;
20287;SDS011;10303;51.960;8.372;2023-11-19T06:44:12;22.93;;;3.23;;
20287;SDS011;10303;51.960;8.372;2023-11-19T06:46:38;9.97;;;2.57;;
20287;SDS011;10303;51.960;8.372;2023-11-19T06:49:05;10.30;;;2.70;;
20287;SDS011;10303;51.960;8.372;2023-11-19T06:51:33;13.57;;;2.30;;
20287;SDS011;10303;51.960;8.372;2023-11-19T06:53:59;11.10;;;2.47;;
20287;SDS011;10303;51.960;8.372;2023-11-19T06:56:26;16.60;;;2.93;;
20287;SDS011;10303;51.960;8.372;2023-11-19T06:58:52;13.43;;;3.70;;
20287;SDS011;10303;51.960;8.372;2023-11-19T07:01:18;20.37;;;3.43;;
20287;SDS011;10303;51.960;8.372;2023-11-19T07:03:45;10.67;;;1.87;;
20287;SDS011;10303;51.960;8.372;2023-11-19T07:06:11;13.37;;;3.40;;
20287;SDS011;10303;51.960;8.372;2023-11-19T07:08:38;12.73;;;3.07;;
20287;SDS011;10303;51.960;8.372;2023-11-19T07:11:11;19.00;;;4.03;;
20287;SDS011;10303;51.960;8.372;2023-11-19T07:13:40;12.97;;;3.33;;
20287;SDS011;10303;51.960;8.372;2023-11-19T07:16:07;7.97;;;2.63;;
20287;SDS011;10303;51.960;8.372;2023-11-19T07:18:35;12.60;;;3.07;;
20287;SDS011;10303;51.960;8.372;2023-11-19T07:21:01;20.93;;;4.00;;
20287;SDS011;10303;51.960;8.372;2023-11-19T07:23:28;14.60;;;2.83;;
20287;SDS011;10303;51.960;8.372;2023-11-19T07:25:54;20.23;;;3.73;;
20287;SDS011;10303;51.960;8.372;2023-11-19T07:28:20;16.47;;;2.77;;
20287;SDS011;10303;51.960;8.372;2023-11-19T07:30:46;18.10;;;3.53;;
20287;SDS011;10303;51.960;8.372;2023-11-19T07:33:11;14.57;;;2.00;;
20287;SDS011;10303;51.960;8.372;2023-11-19T07:35:39;6.57;;;2.47;;
20287;SDS011;10303;51.960;8.372;2023-11-19T07:38:07;18.20;;;4.57;;
20287;SDS011;10303;51.960;8.372;2023-11-19T07:40:34;16.60;;;3.70;;
20287;SDS011;10303;51.960;8.372;2023-11-19T07:42:59;17.90;;;3.40;;
20287;SDS011;10303;51.960;8.372;2023-11-19T07:45:26;17.90;;;3.30;;
20287;SDS011;10303;51.960;8.372;2023-11-19T07:47:52;17.37;;;4.13;;
20287;SDS011;10303;51.960;8.372;2023-11-19T07:50:20;7.83;;;2.87;;
20287;SDS011;10303;51.960;8.372;2023-11-19T07:52:46;13.23;;;4.10;;
20287;SDS011;10303;51.960;8.372;2023-11-19T07:55:12;18.07;;;4.23;;
20287;SDS011;10303;51.960;8.372;2023-11-19T07:57:38;8.17;;;2.20;;
20287;SDS011;10303;51.960;8.372;2023-11-19T08:00:04;12.77;;;2.57;;
20287;SDS011;10303;51.960;8.372;2023-11-19T08:02:38;12.57;;;2.37;;
20287;SDS011;10303;51.960;8.372;2023-11-19T08:05:04;7.43;;;2.87;;
20287;SDS011;10303;51.960;8.372;2023-11-19T08:07:31;23.77;;;3.13;;
20287;SDS011;10303;51.960;8.372;2023-11-19T08:09:57;18.63;;;4.63;;
20287;SDS011;10303;51.960;8.372;2023-11-19T08:12:23;9.30;;;3.03;;
20287;SDS011;10303;51.960;8.372;2023-11-19T08:14:49;21.00;;;3.63;;
20287;SDS011;10303;51.960;8.372;2023-11-19T08:17:15;12.80;;;2.83;;
20287;SDS011;10303;51.960;8.372;2023-11-19T08:19:41;10.30;;;2.70;;
20287;SDS011;10303;51.960;8.372;2023-11-19T08:22:07;16.33;;;3.53;;
20287;SDS011;10303;51.960;8.372;2023-11-19T08:24:34;5.83;;;2.40;;
20287;SDS011;10303;51.960;8.372;2023-11-19T08:27:00;11.63;;;3.10;;
20287;SDS011;10303;51.960;8.372;2023-11-19T08:29:26;11.80;;;3.60;;
20287;SDS011;10303;51.960;8.372;2023-11-19T08:31:53;10.30;;;2.63;;
20287;SDS011;10303;51.960;8.372;2023-11-19T08:34:19;9.10;;;2.10;;
20287;SDS011;10303;51.960;8.372;2023-11-19T08:36:49;11.47;;;2.43;;
20287;SDS011;10303;51.960;8.372;2023-11-19T08:39:18;10.60;;;2.73;;
20287;SDS011;10303;51.960;8.372;2023-11-19T08:41:46;12.33;;;2.40;;
20287;SDS011;10303;51.960;8.372;2023-11-19T08:44:13;10.93;;;3.00;;
20287;SDS011;10303;51.960;8.372;2023-11-19T08:46:45;14.67;;;4.23;;
20287;SDS011;10303;51.960;8.372;2023-11-19T08:49:15;13.80;;;3.83;;
20287;SDS011;10303;51.960;8.372;2023-11-19T08:51:43;8.27;;;2.33;;
20287;SDS011;10303;51.960;8.372;2023-11-19T08:54:10;14.80;;;4.63;;
20287;SDS011;10303;51.960;8.372;2023-11-19T08:56:38;18.13;;;2.87;;
20287;SDS011;10303;51.960;8.372;2023-11-19T08:59:04;9.43;;;2.43;;
20287;SDS011;10303;51.960;8.372;2023-11-19T09:01:30;6.70;;;2.13;;
20287;SDS011;10303;51.960;8.372;2023-11-19T09:03:56;21.20;;;5.20;;
20287;SDS011;10303;51.960;8.372;2023-11-19T09:06:22;12.67;;;3.47;;
20287;SDS011;10303;51.960;8.372;2023-11-19T09:08:48;15.13;;;3.53;;
20287;SDS011;10303;51.960;8.372;2023-11-19T09:11:15;16.83;;;3.93;;
20287;SDS011;10303;51.960;8.372;2023-11-19T09:13:44;10.93;;;2.83;;
20287;SDS011;10303;51.960;8.372;2023-11-19T09:16:13;17.10;;;3.83;;
20287;SDS011;10303;51.960;8.372;2023-11-19T09:18:40;19.23;;;3.57;;
20287;SDS011;10303;51.960;8.372;2023-11-19T09:21:06;13.57;;;3.07;;
20287;SDS011;10303;51.960;8.372;2023-11-19T09:23:32;18.57;;;3.73;;
20287;SDS011;10303;51.960;8.372;2023-11-19T09:26:04;22.53;;;4.10;;
20287;SDS011;10303;51.960;8.372;2023-11-19T09:28:31;19.37;;;4.23;;
20287;SDS011;10303;51.960;8.372;2023-11-19T09:30:57;14.87;;;2.30;;
20287;SDS011;10303;51.960;8.372;2023-11-19T09:33:24;16.57;;;4.03;;
20287;SDS011;10303;51.960;8.372;2023-11-19T09:35:51;15.00;;;2.83;;
20287;SDS011;10303;51.960;8.372;2023-11-19T09:38:18;14.23;;;3.53;;
20287;SDS011;10303;51.960;8.372;2023-11-19T09:40:44;13.10;;;2.90;;
20287;SDS011;10303;51.960;8.372;2023-11-19T09:43:10;11.23;;;3.17;;
20287;SDS011;10303;51.960;8.372;2023-11-19T09:45:57;8.50;;;3.00;;
20287;SDS011;10303;51.960;8.372;2023-11-19T09:48:26;15.53;;;3.40;;
20287;SDS011;10303;51.960;8.372;2023-11-19T09:50:52;9.57;;;2.73;;
20287;SDS011;10303;51.960;8.372;2023-11-19T09:53:20;16.40;;;3.83;;
20287;SDS011;10303;51.960;8.372;2023-11-19T09:55:46;11.03;;;2.93;;
20287;SDS011;10303;51.960;8.372;2023-11-19T09:58:13;14.17;;;3.63;;
20287;SDS011;10303;51.960;8.372;2023-11-19T10:00:40;13.93;;;3.00;;
20287;SDS011;10303;51.960;8.372;2023-11-19T10:03:07;8.67;;;3.27;;
20287;SDS011;10303;51.960;8.372;2023-11-19T10:05:37;14.53;;;3.03;;
20287;SDS011;10303;51.960;8.372;2023-11-19T10:08:04;21.60;;;4.23;;
20287;SDS011;10303;51.960;8.372;2023-11-19T10:10:31;16.87;;;2.80;;
20287;SDS011;10303;51.960;8.372;2023-11-19T10:12:57;15.40;;;3.80;;
20287;SDS011;10303;51.960;8.372;2023-11-19T10:15:24;19.43;;;3.23;;
20287;SDS011;10303;51.960;8.372;2023-11-19T10:17:52;20.47;;;4.03;;
20287;SDS011;10303;51.960;8.372;2023-11-19T10:20:22;24.87;;;5.10;;
20287;SDS011;10303;51.960;8.372;2023-11-19T10:22:48;16.80;;;3.30;;
20287;SDS011;10303;51.960;8.372;2023-11-19T10:25:21;10.87;;;2.83;;
20287;SDS011;10303;51.960;8.372;2023-11-19T10:27:53;13.00;;;3.00;;
20287;SDS011;10303;51.960;8.372;2023-11-19T10:30:21;11.87;;;2.20;;
20287;SDS011;10303;51.960;8.372;2023-11-19T10:33:03;15.37;;;3.20;;
20287;SDS011;10303;51.960;8.372;2023-11-19T10:35:34;10.77;;;2.93;;
20287;SDS011;10303;51.960;8.372;2023-11-19T10:38:22;14.67;;;2.63;;
20287;SDS011;10303;51.960;8.372;2023-11-19T10:40:52;10.53;;;2.57;;
20287;SDS011;10303;51.960;8.372;2023-11-19T10:43:20;13.93;;;3.03;;
20287;SDS011;10303;51.960;8.372;2023-11-19T10:45:51;23.00;;;6.27;;
20287;SDS011;10303;51.960;8.372;2023-11-19T10:48:17;12.60;;;3.53;;
20287;SDS011;10303;51.960;8.372;2023-11-19T10:50:44;10.40;;;3.17;;
20287;SDS011;10303;51.960;8.372;2023-11-19T10:53:13;15.20;;;3.57;;
20287;SDS011;10303;51.960;8.372;2023-11-19T10:55:39;26.00;;;3.70;;
20287;SDS011;10303;51.960;8.372;2023-11-19T10:58:05;19.83;;;3.87;;
20287;SDS011;10303;51.960;8.372;2023-11-19T11:00:44;11.27;;;3.13;;
20287;SDS011;10303;51.960;8.372;2023-11-19T11:03:18;7.37;;;2.60;;
20287;SDS011;10303;51.960;8.372;2023-11-19T11:05:46;9.63;;;2.60;;
20287;SDS011;10303;51.960;8.372;2023-11-19T11:08:14;17.20;;;3.40;;
20287;SDS011;10303;51.960;8.372;2023-11-19T11:10:45;9.80;;;1.70;;
20287;SDS011;10303;51.960;8.372;2023-11-19T11:13:19;15.70;;;4.07;;
20287;SDS011;10303;51.960;8.372;2023-11-19T11:15:48;12.40;;;3.37;;
20287;SDS011;10303;51.960;8.372;2023-11-19T11:18:15;15.30;;;2.77;;
20287;SDS011;10303;51.960;8.372;2023-11-19T11:20:45;12.30;;;2.93;;
20287;SDS011;10303;51.960;8.372;2023-11-19T11:35:50;5.87;;;2.17;;
20287;SDS011;10303;51.960;8.372;2023-11-19T11:38:27;15.90;;;3.83;;
20287;SDS011;10303;51.960;8.372;2023-11-19T11:49:02;8.30;;;2.73;;
20287;SDS011;10303;51.960;8.372;2023-11-19T11:54:11;15.00;;;2.07;;
20287;SDS011;10303;51.960;8.372;2023-11-19T11:56:54;11.10;;;2.77;;
20287;SDS011;10303;51.960;8.372;2023-11-19T11:59:37;11.77;;;2.40;;
20287;SDS011;10303;51.960;8.372;2023-11-19T12:02:09;14.60;;;2.73;;
20287;SDS011;10303;51.960;8.372;2023-11-19T12:04:39;15.70;;;2.50;;
20287;SDS011;10303;51.960;8.372;2023-11-19T12:07:16;17.10;;;3.00;;
20287;SDS011;10303;51.960;8.372;2023-11-19T12:09:47;14.10;;;3.17;;
20287;SDS011;10303;51.960;8.372;2023-11-19T12:12:18;21.07;;;3.90;;
20287;SDS011;10303;51.960;8.372;2023-11-19T12:20:06;16.33;;;3.63;;
20287;SDS011;10303;51.960;8.372;2023-11-19T12:22:35;14.07;;;2.27;;
20287;SDS011;10303;51.960;8.372;2023-11-19T12:25:09;12.10;;;2.30;;
20287;SDS011;10303;51.960;8.372;2023-11-19T12:27:44;11.87;;;2.67;;
20287;SDS011;10303;51.960;8.372;2023-11-19T12:30:22;15.33;;;2.07;;
20287;SDS011;10303;51.960;8.372;2023-11-19T12:32:49;14.70;;;3.43;;
20287;SDS011;10303;51.960;8.372;2023-11-19T12:35:18;15.87;;;3.23;;
20287;SDS011;10303;51.960;8.372;2023-11-19T12:37:45;19.43;;;3.00;;
20287;SDS011;10303;51.960;8.372;2023-11-19T12:40:17;21.83;;;2.87;;
20287;SDS011;10303;51.960;8.372;2023-11-19T12:42:46;11.13;;;2.80;;
20287;SDS011;10303;51.960;8.372;2023-11-19T12:45:13;16.30;;;3.70;;
20287;SDS011;10303;51.960;8.372;2023-11-19T12:47:41;11.27;;;2.33;;
20287;SDS011;10303;51.960;8.372;2023-11-19T12:50:09;13.60;;;3.33;;
20287;SDS011;10303;51.960;8.372;2023-11-19T12:52:36;11.97;;;2.97;;
20287;SDS011;10303;51.960;8.372;2023-11-19T12:55:03;9.07;;;2.93;;
20287;SDS011;10303;51.960;8.372;2023-11-19T12:57:52;10.53;;;2.40;;
20287;SDS011;10303;51.960;8.372;2023-11-19T13:00:20;14.20;;;3.67;;
20287;SDS011;10303;51.960;8.372;2023-11-19T13:02:49;8.07;;;2.27;;
20287;SDS011;10303;51.960;8.372;2023-11-19T13:05:27;13.87;;;2.63;;
20287;SDS011;10303;51.960;8.372;2023-11-19T13:07:58;22.83;;;2.30;;
20287;SDS011;10303;51.960;8.372;2023-11-19T13:10:49;11.77;;;2.40;;
20287;SDS011;10303;51.960;8.372;2023-11-19T13:13:19;9.50;;;3.17;;
20287;SDS011;10303;51.960;8.372;2023-11-19T13:15:45;12.23;;;3.67;;
20287;SDS011;10303;51.960;8.372;2023-11-19T13:18:12;12.63;;;3.13;;
20287;SDS011;10303;51.960;8.372;2023-11-19T13:20:39;9.87;;;2.83;;
20287;SDS011;10303;51.960;8.372;2023-11-19T13:23:05;9.43;;;3.10;;
20287;SDS011;10303;51.960;8.372;2023-11-19T13:25:40;10.17;;;2.33;;
20287;SDS011;10303;51.960;8.372;2023-11-19T13:28:06;9.10;;;2.33;;
20287;SDS011;10303;51.960;8.372;2023-11-19T13:30:32;15.80;;;4.17;;
20287;SDS011;10303;51.960;8.372;2023-11-19T13:32:58;12.10;;;3.23;;
20287;SDS011;10303;51.960;8.372;2023-11-19T13:35:23;9.30;;;2.67;;
20287;SDS011;10303;51.960;8.372;2023-11-19T13:37:50;5.90;;;2.00;;
20287;SDS011;10303;51.960;8.372;2023-11-19T13:40:16;13.13;;;3.10;;
20287;SDS011;10303;51.960;8.372;2023-11-19T13:42:44;7.57;;;1.90;;
20287;SDS011;10303;51.960;8.372;2023-11-19T13:45:13;10.40;;;2.63;;
20287;SDS011;10303;51.960;8.372;2023-11-19T13:47:41;14.87;;;2.73;;
20287;SDS011;10303;51.960;8.372;2023-11-19T13:50:09;18.00;;;4.00;;
20287;SDS011;10303;51.960;8.372;2023-11-19T13:52:41;9.07;;;2.67;;
20287;SDS011;10303;51.960;8.372;2023-11-19T13:55:11;9.90;;;2.37;;
20287;SDS011;10303;51.960;8.372;2023-11-19T13:57:38;5.13;;;1.90;;
20287;SDS011;10303;51.960;8.372;2023-11-19T14:00:06;10.67;;;2.20;;
20287;SDS011;10303;51.960;8.372;2023-11-19T14:02:42;10.20;;;2.43;;
20287;SDS011;10303;51.960;8.372;2023-11-19T14:05:08;13.03;;;2.23;;
20287;SDS011;10303;51.960;8.372;2023-11-19T14:07:36;13.27;;;3.43;;
20287;SDS011;10303;51.960;8.372;2023-11-19T14:10:03;7.90;;;2.17;;
20287;SDS011;10303;51.960;8.372;2023-11-19T14:12:30;9.60;;;2.07;;
20287;SDS011;10303;51.960;8.372;2023-11-19T14:14:57;7.37;;;1.93;;
20287;SDS011;10303;51.960;8.372;2023-11-19T14:17:25;17.10;;;3.33;;
20287;SDS011;10303;51.960;8.372;2023-11-19T14:19:52;9.17;;;1.70;;
20287;SDS011;10303;51.960;8.372;2023-11-19T14:22:18;7.03;;;2.10;;
20287;SDS011;10303;51.960;8.372;2023-11-19T14:24:44;8.97;;;2.00;;
20287;SDS011;10303;51.960;8.372;2023-11-19T14:27:10;4.60;;;1.67;;
20287;SDS011;10303;51.960;8.372;2023-11-19T14:29:36;7.70;;;2.63;;
20287;SDS011;10303;51.960;8.372;2023-11-19T14:32:02;12.03;;;2.27;;
20287;SDS011;10303;51.960;8.372;2023-11-19T14:34:29;7.33;;;2.20;;
20287;SDS011;10303;51.960;8.372;2023-11-19T14:36:56;5.67;;;1.70;;
20287;SDS011;10303;51.960;8.372;2023-11-19T14:39:22;6.80;;;2.20;;
20287;SDS011;10303;51.960;8.372;2023-11-19T14:41:48;9.53;;;3.10;;
20287;SDS011;10303;51.960;8.372;2023-11-19T14:44:14;7.73;;;1.60;;
20287;SDS011;10303;51.960;8.372;2023-11-19T14:46:40;6.40;;;1.90;;
20287;SDS011;10303;51.960;8.372;2023-11-19T14:49:06;10.67;;;2.83;;
20287;SDS011;10303;51.960;8.372;2023-11-19T14:51:36;12.60;;;2.50;;
20287;SDS011;10303;51.960;8.372;2023-11-19T14:54:04;14.40;;;2.30;;
20287;SDS011;10303;51.960;8.372;2023-11-19T14:56:30;7.23;;;1.83;;
20287;SDS011;10303;51.960;8.372;2023-11-19T14:58:57;10.20;;;2.37;;
20287;SDS011;10303;51.960;8.372;2023-11-19T15:01:24;5.20;;;1.43;;
20287;SDS011;10303;51.960;8.372;2023-11-19T15:03:50;3.87;;;1.20;;
20287;SDS011;10303;51.960;8.372;2023-11-19T15:06:16;5.27;;;1.73;;
20287;SDS011;10303;51.960;8.372;2023-11-19T15:08:42;8.23;;;1.83;;
20287;SDS011;10303;51.960;8.372;2023-11-19T15:11:10;7.53;;;1.63;;
20287;SDS011;10303;51.960;8.372;2023-11-19T15:13:37;8.00;;;1.60;;
20287;SDS011;10303;51.960;8.372;2023-11-19T15:16:06;9.23;;;1.63;;
20287;SDS011;10303;51.960;8.372;2023-11-19T15:18:35;6.40;;;1.90;;
20287;SDS011;10303;51.960;8.372;2023-11-19T15:21:02;6.43;;;1.60;;